Airfield :







YOU CAN JOIN US ON...

 
LOGIN :

Register | Disclaimer

   EN    FR    IT 

 









Legend :    VFR   Marginal VFR   IFR   Intensive IFR   Very Intensive IFR
Visi :
Ceiling :
>= 8 km
>= 3000ft
5 to 8 km
1000 to 3000 ft
1500m to 5 km
500 to 1000 ft
800 to 1500m
200 to 500 ft
< 800m
< 200 ft
Symbols :   Thunderstorms  Fog  Heavy snow  Heavy precipitations  Wind > 20 kt







- Airport Elevation : 203 ft
- IATA code : YQY


CYQY - Sydney

CURRENT METAR :
  • 251300Z 10015G25KT 3/4SM R06/3500V5000FT/N -DZ BR FEW003 OVC004 01/01 A2966 RMK ST1ST7 SLP049

EXPIRED METARs :
  • 251244Z 10014G25KT 3/4SM R06/4500FT/N -DZ BR FEW003 OVC004 01/01 A2967 RMK ST2ST6 SLP052
  • 251227Z 10017G28KT 3/4SM R06/5500FT/N -RA BR FEW003 OVC004 01/01 A2967 RMK ST2NS6 SLP050
  • 251200Z 09017G26KT 1SM R06/5500FT/D -RA BR FEW003 OVC004 01/00 A2967 RMK ST2NS6 SLP051
  • 251142Z 10015G22KT 1SM R06/P6000FT/N -RA BR FEW003 OVC004 01/00 A2968 RMK ST1NS7 SLP055
  • 251100Z 09014G22KT 2SM -RA BR FEW004 OVC005 01/00 A2969 RMK ST2NS6 PRESFR SLP057

TAF TAF CYQY
Valid from the 25 at 12:00 until the 26 at 00:00 UTC


251138Z 2512/2524 10015G25KT 2SM -RA BR OVC005
TEMPO 2512/2514 1/2SM -DZ FG VV001
FM251400 10015G25KT 1/2SM -DZ FG VV001
TEMPO 2514/2520 1SM -DZ BR OVC003
BECMG 2518/2520 32010G20KT
FM252000 32010G20KT P6SM BKN006 OVC012 RMK NXT FCST BY 251800Z
CZQM FIR / North America



MET'MAP, your aeronautical weather chart ! - Copyright ORBIFLY December 2007 - Disclaimer

ORBIFLY MET'MAP TEAM :

Programming & Development : Alexandra Zaïnal
Concept & Development : Baudouin d'Aumeries
Co-Development & Prog : Marc-Olivier Méhu
Technical & hardware support : Manuel Goepfert

Contact : metmap@orbifly.com




SOURCES & CREDITS :

   NOAA